Time;durP1;ratioP1;P1;durP2;ratioP2;P2;SDS_P1;SDS_P2;PMS_P1;PMS_P2;Temp;Humidity;BMP_temperature;BMP_pressure;BME280_temperature;BME280_humidity;BME280_pressure;Samples;Min_cycle;Max_cycle;Signal;HPM_P1;HPM_P2
2023/08/04 00:00:54;;;;;;;4.13;1.70;;;15.40;99.90;;;;;;5034799;28;20252;-76
2023/08/04 00:03:22;;;;;;;4.23;1.80;;;15.40;99.90;;;;;;5034248;28;20217;-77
2023/08/04 00:05:50;;;;;;;4.90;1.57;;;15.40;99.90;;;;;;5034611;28;20212;-75
2023/08/04 00:08:19;;;;;;;4.23;1.80;;;15.40;99.90;;;;;;5034426;28;20294;-77
2023/08/04 00:10:48;;;;;;;4.10;1.80;;;15.30;99.90;;;;;;5034570;28;20240;-77
2023/08/04 00:13:16;;;;;;;4.07;1.73;;;15.30;99.90;;;;;;5034051;28;20687;-77
2023/08/04 00:15:44;;;;;;;3.73;1.60;;;15.20;99.90;;;;;;5033846;28;20213;-76
2023/08/04 00:18:12;;;;;;;2.53;1.63;;;15.30;99.90;;;;;;5034051;28;20279;-76
2023/08/04 00:20:40;;;;;;;6.83;1.93;;;15.20;99.90;;;;;;5034266;28;20259;-76
2023/08/04 00:23:08;;;;;;;3.27;1.60;;;15.20;99.90;;;;;;5033749;28;20671;-77
2023/08/04 00:25:38;;;;;;;3.77;1.87;;;15.20;99.90;;;;;;5035651;28;20713;-77
2023/08/04 00:28:06;;;;;;;2.47;1.70;;;15.20;99.90;;;;;;5053952;28;20689;-79
2023/08/04 00:30:34;;;;;;;7.03;2.10;;;15.20;99.90;;;;;;5054162;28;20640;-79
2023/08/04 00:33:02;;;;;;;3.87;2.00;;;15.20;99.90;;;;;;5050017;28;20200;-78
2023/08/04 00:35:30;;;;;;;3.50;2.00;;;15.10;99.90;;;;;;5034266;28;20213;-80
2023/08/04 00:37:58;;;;;;;4.03;1.87;;;15.10;99.90;;;;;;5034142;28;20244;-79
2023/08/04 00:40:28;;;;;;;3.93;1.77;;;15.10;99.90;;;;;;5033852;28;20259;-78
2023/08/04 00:42:58;;;;;;;3.83;1.80;;;15.10;99.90;;;;;;5046443;28;20647;-78
2023/08/04 00:45:29;;;;;;;3.60;1.90;;;15.10;99.90;;;;;;5053748;28;20642;-79
2023/08/04 00:47:58;;;;;;;3.50;1.60;;;15.10;99.90;;;;;;5053867;28;20293;-78
2023/08/04 00:50:26;;;;;;;2.47;1.70;;;15.10;99.90;;;;;;5050739;28;20217;-78
2023/08/04 00:52:54;;;;;;;2.87;1.73;;;15.10;99.90;;;;;;5033449;28;20204;-76
2023/08/04 00:55:23;;;;;;;3.97;2.10;;;15.00;99.90;;;;;;5033540;28;20239;-77
2023/08/04 00:57:51;;;;;;;2.87;1.67;;;15.00;99.90;;;;;;5033780;28;20262;-74
2023/08/04 01:00:21;;;;;;;3.23;1.70;;;15.00;99.90;;;;;;5033676;28;20529;-76
2023/08/04 01:02:49;;;;;;;4.03;2.00;;;15.00;99.90;;;;;;5033267;28;20279;-77
2023/08/04 01:05:18;;;;;;;3.40;1.70;;;14.90;99.90;;;;;;5033444;28;20213;-74
2023/08/04 01:07:53;;;;;;;3.37;1.83;;;14.90;99.90;;;;;;5032990;28;20217;-77
2023/08/04 01:10:27;;;;;;;4.10;2.00;;;14.90;99.90;;;;;;5033472;28;20290;-78
2023/08/04 01:13:00;;;;;;;4.90;2.00;;;14.90;99.90;;;;;;5033072;28;20205;-75
2023/08/04 01:15:31;;;;;;;2.90;1.70;;;14.90;99.90;;;;;;5050555;28;20609;-76
2023/08/04 01:17:59;;;;;;;3.53;2.03;;;14.80;99.90;;;;;;5045969;28;20629;-77
2023/08/04 01:20:31;;;;;;;3.83;1.73;;;14.80;99.90;;;;;;5033249;28;20193;-76
2023/08/04 01:23:00;;;;;;;4.57;1.77;;;14.80;99.90;;;;;;5032661;28;20229;-77
2023/08/04 01:25:33;;;;;;;3.70;1.70;;;14.80;99.90;;;;;;5032264;28;20733;-77
2023/08/04 01:28:05;;;;;;;3.90;1.70;;;14.80;99.90;;;;;;5050055;28;20284;-78
2023/08/04 01:30:34;;;;;;;5.10;1.63;;;14.80;99.90;;;;;;5052784;28;20282;-78
2023/08/04 01:33:02;;;;;;;4.70;1.87;;;14.80;99.90;;;;;;5052550;28;20254;-77
2023/08/04 01:35:31;;;;;;;4.47;1.80;;;14.80;99.90;;;;;;5044822;28;20240;-77
2023/08/04 01:38:00;;;;;;;2.37;1.40;;;14.80;99.90;;;;;;5032592;28;20247;-79
2023/08/04 01:40:28;;;;;;;2.10;1.67;;;14.80;99.90;;;;;;5032842;28;20221;-78
2023/08/04 01:42:56;;;;;;;4.60;1.90;;;14.70;99.90;;;;;;5031894;28;20719;-79
2023/08/04 01:45:24;;;;;;;6.27;1.70;;;14.70;99.90;;;;;;5032584;28;20244;-77
2023/08/04 01:47:53;;;;;;;3.20;1.83;;;14.70;99.90;;;;;;5032753;28;20212;-78
2023/08/04 01:50:21;;;;;;;6.33;2.10;;;14.70;99.90;;;;;;5032624;28;20602;-78
2023/08/04 01:52:49;;;;;;;3.70;1.83;;;14.70;99.90;;;;;;5050078;28;20212;-78
2023/08/04 01:55:19;;;;;;;3.27;1.90;;;14.70;99.90;;;;;;5052547;28;20222;-78
2023/08/04 01:57:47;;;;;;;3.20;1.87;;;14.70;99.90;;;;;;5052207;28;20224;-78
2023/08/04 02:00:16;;;;;;;3.20;1.73;;;14.70;99.90;;;;;;5038186;28;20209;-78
2023/08/04 02:02:44;;;;;;;3.47;1.80;;;14.70;99.90;;;;;;5032050;28;20580;-77
2023/08/04 02:05:13;;;;;;;4.53;2.27;;;14.70;99.90;;;;;;5032028;28;20213;-78
2023/08/04 02:07:41;;;;;;;5.97;1.90;;;14.70;99.90;;;;;;5031825;28;20270;-77
2023/08/04 02:10:10;;;;;;;3.67;2.03;;;14.70;99.90;;;;;;5031939;28;20667;-78
2023/08/04 02:12:41;;;;;;;5.20;2.00;;;14.70;99.90;;;;;;5032045;28;20208;-79
2023/08/04 02:15:09;;;;;;;3.00;1.87;;;14.60;99.90;;;;;;5031854;28;20223;-77
2023/08/04 02:17:37;;;;;;;4.33;1.90;;;14.70;99.90;;;;;;5031598;28;20264;-77
2023/08/04 02:20:07;;;;;;;7.53;1.87;;;14.70;99.90;;;;;;5032006;28;20227;-78
2023/08/04 02:22:35;;;;;;;4.40;1.70;;;14.60;99.90;;;;;;5031645;28;20224;-77
2023/08/04 02:25:03;;;;;;;4.47;1.90;;;14.70;99.90;;;;;;5034959;28;20658;-78
2023/08/04 02:27:31;;;;;;;4.10;1.73;;;14.60;99.90;;;;;;5051911;28;20227;-78
2023/08/04 02:30:01;;;;;;;4.80;1.90;;;14.60;99.90;;;;;;5052068;28;20299;-78
2023/08/04 02:32:29;;;;;;;4.97;2.00;;;14.60;99.90;;;;;;5051715;28;20204;-78
2023/08/04 02:34:57;;;;;;;2.67;1.77;;;14.60;99.90;;;;;;5041651;28;20213;-78
2023/08/04 02:37:25;;;;;;;3.10;2.03;;;14.60;99.90;;;;;;5031444;28;20216;-79
2023/08/04 02:39:53;;;;;;;3.63;2.43;;;14.60;99.90;;;;;;5031683;28;20239;-76
2023/08/04 02:42:21;;;;;;;5.27;2.87;;;14.60;99.90;;;;;;5031453;28;20679;-79
2023/08/04 02:44:54;;;;;;;2.97;2.37;;;14.60;99.90;;;;;;5031602;28;20220;-77
2023/08/04 02:47:23;;;;;;;5.37;3.60;;;14.60;99.90;;;;;;5031578;28;20209;-78
2023/08/04 02:49:51;;;;;;;3.47;1.70;;;14.60;99.90;;;;;;5034468;28;20218;-76
2023/08/04 02:52:19;;;;;;;4.73;1.67;;;14.60;99.90;;;;;;5032663;28;20236;-77
2023/08/04 02:54:48;;;;;;;6.60;1.80;;;14.60;99.90;;;;;;5032066;28;20213;-78
2023/08/04 02:57:16;;;;;;;2.70;1.60;;;14.60;99.90;;;;;;5031367;28;20262;-75
2023/08/04 02:59:44;;;;;;;3.90;1.70;;;14.60;99.90;;;;;;5031541;28;20861;-74
2023/08/04 03:02:12;;;;;;;2.23;1.60;;;14.60;99.90;;;;;;5031290;28;20213;-77
2023/08/04 03:04:41;;;;;;;5.27;1.70;;;14.60;99.90;;;;;;5031113;28;20223;-76
2023/08/04 03:07:10;;;;;;;4.93;1.70;;;14.60;99.90;;;;;;5031216;28;20254;-77
2023/08/04 03:09:39;;;;;;;5.47;1.83;;;14.60;99.90;;;;;;5031523;28;20221;-76
2023/08/04 03:12:07;;;;;;;3.23;2.17;;;14.60;99.90;;;;;;5030739;28;20653;-75
2023/08/04 03:14:35;;;;;;;5.80;2.80;;;14.60;99.90;;;;;;5031540;28;20251;-75
2023/08/04 03:17:04;;;;;;;5.07;2.00;;;14.60;99.90;;;;;;5036719;28;20212;-76
2023/08/04 03:19:32;;;;;;;5.37;2.80;;;14.60;99.90;;;;;;5051098;28;20200;-76
2023/08/04 03:22:01;;;;;;;4.70;2.70;;;14.50;99.90;;;;;;5049471;28;20278;-76
2023/08/04 03:24:31;;;;;;;5.10;3.30;;;14.50;99.90;;;;;;5048437;28;20277;-77
2023/08/04 03:26:59;;;;;;;3.13;2.67;;;14.50;99.90;;;;;;5050956;28;20287;-75
2023/08/04 03:29:27;;;;;;;5.90;3.63;;;14.50;99.90;;;;;;5051038;28;20274;-75
2023/08/04 03:31:55;;;;;;;4.03;2.13;;;14.50;99.90;;;;;;5031661;28;20236;-75
2023/08/04 03:34:23;;;;;;;3.90;1.90;;;14.50;99.90;;;;;;5031552;28;20240;-75
2023/08/04 03:36:51;;;;;;;4.00;2.00;;;14.50;99.90;;;;;;5031462;28;20248;-74
2023/08/04 03:39:21;;;;;;;3.47;2.00;;;14.60;99.90;;;;;;5044547;28;20205;-75
2023/08/04 03:41:49;;;;;;;4.77;1.90;;;14.50;99.90;;;;;;5050945;28;20208;-76
2023/08/04 03:44:17;;;;;;;4.50;1.70;;;14.50;99.90;;;;;;5051146;28;20290;-75
2023/08/04 03:46:45;;;;;;;3.27;1.60;;;14.50;99.90;;;;;;5042896;28;20259;-77
2023/08/04 03:49:13;;;;;;;3.07;1.70;;;14.50;99.90;;;;;;5031477;28;20274;-74
2023/08/04 03:51:42;;;;;;;5.17;1.80;;;14.50;99.90;;;;;;5048998;28;20235;-77
2023/08/04 03:54:10;;;;;;;3.30;1.77;;;14.50;99.90;;;;;;5049953;28;20570;-74
2023/08/04 03:56:39;;;;;;;3.57;1.70;;;14.50;99.90;;;;;;5034659;28;20213;-75
2023/08/04 03:59:08;;;;;;;3.43;2.00;;;14.50;99.90;;;;;;5034796;28;20279;-75
2023/08/04 04:01:36;;;;;;;4.93;1.67;;;14.50;99.90;;;;;;5034441;28;20266;-78
2023/08/04 04:04:05;;;;;;;3.20;2.03;;;14.50;99.90;;;;;;5034113;28;20251;-79
2023/08/04 04:06:33;;;;;;;4.70;1.97;;;14.50;99.90;;;;;;5034665;28;20262;-78
2023/08/04 04:09:03;;;;;;;2.73;1.60;;;14.50;99.90;;;;;;5034494;28;20781;-77
2023/08/04 04:11:31;;;;;;;3.97;1.70;;;14.50;99.90;;;;;;5034405;28;20232;-76
2023/08/04 04:14:01;;;;;;;4.17;1.90;;;14.50;99.90;;;;;;5034135;28;20619;-78
2023/08/04 04:16:30;;;;;;;3.27;1.70;;;14.50;99.90;;;;;;5034353;28;20208;-79
2023/08/04 04:18:58;;;;;;;4.10;1.67;;;14.50;99.90;;;;;;5034560;28;20209;-75
2023/08/04 04:21:26;;;;;;;3.37;1.77;;;14.50;99.90;;;;;;5034305;28;20212;-78
2023/08/04 04:23:54;;;;;;;4.40;1.50;;;14.50;99.90;;;;;;5034134;28;20220;-79
2023/08/04 04:26:22;;;;;;;5.17;1.80;;;14.50;99.90;;;;;;5040140;28;20258;-78
2023/08/04 04:28:50;;;;;;;3.20;1.60;;;14.50;99.90;;;;;;5050245;28;20256;-77
2023/08/04 04:31:20;;;;;;;4.27;2.00;;;14.40;99.90;;;;;;5034596;28;20274;-76
2023/08/04 04:33:48;;;;;;;3.27;1.73;;;14.50;99.90;;;;;;5034038;28;20209;-78
2023/08/04 04:36:16;;;;;;;4.27;1.60;;;14.50;99.90;;;;;;5034157;28;20239;-78
2023/08/04 04:38:44;;;;;;;2.80;1.60;;;14.40;99.90;;;;;;5034254;28;20205;-79
2023/08/04 04:41:12;;;;;;;4.57;2.00;;;14.50;99.90;;;;;;5033861;28;20683;-78
2023/08/04 04:43:40;;;;;;;5.80;1.93;;;14.50;99.90;;;;;;5033570;28;20304;-77
2023/08/04 04:46:10;;;;;;;3.23;1.57;;;14.50;99.90;;;;;;5033968;28;20284;-77
2023/08/04 04:48:39;;;;;;;3.30;1.43;;;14.50;99.90;;;;;;5033785;28;20209;-78
2023/08/04 04:51:07;;;;;;;4.43;1.70;;;14.50;99.90;;;;;;5038734;28;20204;-76
2023/08/04 04:53:35;;;;;;;3.57;1.60;;;14.50;99.90;;;;;;5056015;28;20204;-77
2023/08/04 04:56:03;;;;;;;3.03;1.40;;;14.50;99.90;;;;;;5035392;28;20209;-78
2023/08/04 04:58:41;;;;;;;2.93;1.70;;;14.50;99.90;;;;;;5038261;28;20602;-75
2023/08/04 05:01:12;;;;;;;2.03;1.43;;;14.50;99.90;;;;;;5053542;28;20219;-76
2023/08/04 05:03:41;;;;;;;2.97;1.60;;;14.50;99.90;;;;;;5041001;28;20232;-77
2023/08/04 05:06:10;;;;;;;3.60;1.40;;;14.50;99.90;;;;;;5033682;28;20610;-77
2023/08/04 05:08:38;;;;;;;2.83;1.53;;;14.50;99.90;;;;;;5033496;28;20630;-77
2023/08/04 05:11:06;;;;;;;3.83;1.47;;;14.60;99.90;;;;;;5038698;28;20212;-78
2023/08/04 05:13:34;;;;;;;3.33;1.40;;;14.60;99.90;;;;;;5038097;28;20231;-77
2023/08/04 05:16:04;;;;;;;4.80;1.47;;;14.60;99.90;;;;;;5053335;28;20677;-76
2023/08/04 05:18:33;;;;;;;3.60;1.60;;;14.60;99.90;;;;;;5053265;28;20212;-78
2023/08/04 05:21:03;;;;;;;4.50;1.40;;;14.50;99.90;;;;;;5053297;28;20270;-78
2023/08/04 05:23:31;;;;;;;6.20;1.70;;;14.50;99.90;;;;;;5035242;28;20208;-77
2023/08/04 05:25:59;;;;;;;2.70;1.43;;;14.50;99.90;;;;;;5047107;28;20214;-78
2023/08/04 05:28:30;;;;;;;4.60;1.40;;;14.50;99.90;;;;;;5052079;28;20298;-77
2023/08/04 05:31:01;;;;;;;4.67;1.83;;;14.50;99.90;;;;;;5053081;28;20562;-76
2023/08/04 05:33:30;;;;;;;4.20;1.60;;;14.50;99.90;;;;;;5051473;28;20611;-77
2023/08/04 05:35:59;;;;;;;2.93;1.50;;;14.50;99.90;;;;;;5053147;28;20204;-79
2023/08/04 05:38:29;;;;;;;2.67;1.50;;;14.50;99.90;;;;;;5050639;28;20270;-78
2023/08/04 05:41:00;;;;;;;4.33;1.70;;;14.50;99.90;;;;;;5047141;28;20222;-76
2023/08/04 05:43:29;;;;;;;2.73;1.40;;;14.50;99.90;;;;;;5046548;28;20196;-78
2023/08/04 05:46:02;;;;;;;3.53;1.17;;;14.60;99.90;;;;;;5051997;28;20228;-78
2023/08/04 05:48:31;;;;;;;3.00;1.40;;;14.60;99.90;;;;;;5052240;28;20215;-77
2023/08/04 05:50:59;;;;;;;3.10;1.20;;;14.60;99.90;;;;;;5037029;28;20205;-78
2023/08/04 05:53:29;;;;;;;1.60;1.10;;;14.70;99.90;;;;;;5038690;28;20212;-75
2023/08/04 05:55:57;;;;;;;3.43;1.40;;;14.70;99.90;;;;;;5051455;28;20199;-76
2023/08/04 05:58:25;;;;;;;4.60;1.50;;;14.80;99.90;;;;;;5051245;28;20228;-77
2023/08/04 06:00:53;;;;;;;3.17;1.50;;;14.80;99.90;;;;;;5050846;28;20299;-74
2023/08/04 06:03:22;;;;;;;4.57;1.50;;;14.90;99.90;;;;;;5051583;28;20204;-78
2023/08/04 06:05:50;;;;;;;4.70;1.50;;;14.90;99.90;;;;;;5051833;28;20686;-78
2023/08/04 06:08:18;;;;;;;4.80;1.60;;;15.00;99.90;;;;;;5051777;28;20220;-79
2023/08/04 06:10:48;;;;;;;2.70;1.40;;;15.00;99.90;;;;;;5046163;28;20204;-78
2023/08/04 06:13:16;;;;;;;2.40;1.20;;;15.10;99.90;;;;;;5050894;28;20307;-77
2023/08/04 06:15:45;;;;;;;3.00;1.40;;;15.10;99.90;;;;;;5051791;28;20262;-77
2023/08/04 06:18:14;;;;;;;3.73;1.20;;;15.20;99.90;;;;;;5041960;28;20225;-73
2023/08/04 06:20:50;;;;;;;2.43;1.40;;;15.30;99.90;;;;;;5031886;28;20293;-75
2023/08/04 06:23:18;;;;;;;4.10;1.30;;;15.40;99.90;;;;;;5035555;28;20617;-75
2023/08/04 06:25:48;;;;;;;4.17;1.70;;;15.60;99.90;;;;;;5037190;28;20264;-75
2023/08/04 06:28:19;;;;;;;5.33;1.23;;;15.80;99.90;;;;;;5040371;28;20200;-74
2023/08/04 06:30:48;;;;;;;3.87;1.27;;;16.00;99.90;;;;;;5052586;28;20285;-73
2023/08/04 06:33:16;;;;;;;3.23;1.33;;;16.00;99.90;;;;;;5037590;28;20656;-74
2023/08/04 06:35:45;;;;;;;3.13;1.40;;;16.00;99.90;;;;;;5032350;28;20228;-74
2023/08/04 06:38:14;;;;;;;4.23;1.10;;;16.00;99.90;;;;;;5032071;28;20215;-74
2023/08/04 06:40:42;;;;;;;2.23;1.10;;;16.10;99.90;;;;;;5032114;28;20223;-75
2023/08/04 06:43:11;;;;;;;2.03;1.17;;;16.10;99.90;;;;;;5031713;28;20212;-75
2023/08/04 06:45:40;;;;;;;1.70;1.43;;;16.20;99.90;;;;;;5031620;28;20606;-75
2023/08/04 06:48:08;;;;;;;0.73;0.73;;;16.10;99.90;;;;;;5037776;28;20620;-76
2023/08/04 06:50:36;;;;;;;2.67;1.10;;;16.10;99.90;;;;;;5041683;28;20288;-77
2023/08/04 06:53:05;;;;;;;2.77;1.10;;;16.00;99.90;;;;;;5032369;28;20211;-77
2023/08/04 06:55:34;;;;;;;2.13;1.20;;;16.00;99.90;;;;;;5033208;28;20274;-75
2023/08/04 06:58:03;;;;;;;1.17;1.07;;;15.90;99.90;;;;;;5032879;28;20691;-75
2023/08/04 07:00:33;;;;;;;3.93;1.27;;;15.90;99.90;;;;;;5033352;28;20247;-77
2023/08/04 07:03:01;;;;;;;2.50;1.27;;;16.00;99.90;;;;;;5032579;28;20674;-77
2023/08/04 07:05:30;;;;;;;3.80;1.10;;;16.00;99.90;;;;;;5041718;28;20223;-76
2023/08/04 07:07:58;;;;;;;4.07;1.60;;;15.90;99.90;;;;;;5052289;28;20231;-75
2023/08/04 07:10:26;;;;;;;2.83;1.30;;;15.90;99.90;;;;;;5044225;28;20205;-75
2023/08/04 07:12:55;;;;;;;3.13;1.20;;;15.90;99.90;;;;;;5033997;28;20240;-75
2023/08/04 07:15:23;;;;;;;1.20;1.00;;;15.90;99.90;;;;;;5033303;28;20209;-76
2023/08/04 07:17:54;;;;;;;2.37;1.10;;;15.90;99.90;;;;;;5035392;28;20255;-78
2023/08/04 07:20:23;;;;;;;4.13;0.97;;;15.90;99.90;;;;;;5034672;28;20297;-73
2023/08/04 07:22:51;;;;;;;1.30;1.10;;;15.90;99.90;;;;;;5043298;28;20216;-77
2023/08/04 07:25:21;;;;;;;2.13;1.10;;;16.00;99.90;;;;;;5056063;28;20228;-77
2023/08/04 07:27:49;;;;;;;3.27;1.53;;;16.10;99.90;;;;;;5048065;28;20215;-77
2023/08/04 07:30:18;;;;;;;2.73;1.37;;;16.20;99.90;;;;;;5042698;28;20212;-75
2023/08/04 07:32:46;;;;;;;2.57;1.10;;;16.30;99.90;;;;;;5056575;28;20212;-76
2023/08/04 07:35:16;;;;;;;2.17;0.93;;;16.30;99.90;;;;;;5056926;28;20610;-77
2023/08/04 07:37:46;;;;;;;1.70;1.10;;;16.30;99.90;;;;;;5055956;28;20262;-77
2023/08/04 07:40:14;;;;;;;2.33;1.20;;;16.30;99.90;;;;;;5054970;28;20260;-78
2023/08/04 07:42:43;;;;;;;2.70;1.10;;;16.50;99.90;;;;;;5055849;28;20254;-75
2023/08/04 07:45:11;;;;;;;1.17;1.00;;;16.50;99.90;;;;;;5056533;28;20623;-77
2023/08/04 07:47:39;;;;;;;2.40;1.20;;;16.70;99.90;;;;;;5053265;28;20219;-77
2023/08/04 07:50:09;;;;;;;1.40;1.07;;;16.80;99.90;;;;;;5054785;28;20303;-77
2023/08/04 07:52:39;;;;;;;1.37;1.17;;;16.90;99.90;;;;;;5055080;28;20215;-76
2023/08/04 07:55:10;;;;;;;3.57;1.00;;;17.10;99.90;;;;;;5053685;28;20235;-77
2023/08/04 07:57:38;;;;;;;2.67;1.10;;;17.40;99.90;;;;;;5055196;28;20216;-76
2023/08/04 08:00:08;;;;;;;4.23;1.00;;;17.60;99.90;;;;;;5055003;28;20208;-76
2023/08/04 08:02:36;;;;;;;6.30;1.20;;;17.80;99.90;;;;;;5047230;28;20292;-75
2023/08/04 08:05:05;;;;;;;1.47;1.10;;;17.80;99.90;;;;;;5036657;28;20219;-79
2023/08/04 08:07:33;;;;;;;1.83;0.90;;;18.00;99.90;;;;;;5055063;28;20633;-78
2023/08/04 08:10:14;;;;;;;2.50;1.30;;;18.00;99.90;;;;;;5055323;28;20216;-78
2023/08/04 08:12:42;;;;;;;2.47;1.07;;;17.90;99.90;;;;;;5040752;28;20229;-77
2023/08/04 08:15:12;;;;;;;3.63;1.40;;;17.90;99.90;;;;;;5049804;28;20205;-78
2023/08/04 08:17:40;;;;;;;1.47;1.10;;;17.80;99.90;;;;;;5054826;28;20242;-77
2023/08/04 08:20:09;;;;;;;2.07;1.00;;;17.60;99.90;;;;;;5053516;28;20254;-77
2023/08/04 08:22:38;;;;;;;2.90;1.10;;;17.70;99.90;;;;;;5054147;28;20204;-78
2023/08/04 08:25:10;;;;;;;3.00;1.00;;;17.80;99.90;;;;;;5039052;28;20219;-77
2023/08/04 08:27:40;;;;;;;1.47;0.90;;;17.90;99.90;;;;;;5034524;28;20294;-79
2023/08/04 08:30:10;;;;;;;2.50;0.97;;;18.20;99.90;;;;;;5035024;28;20213;-78
2023/08/04 08:32:38;;;;;;;1.10;0.90;;;18.40;99.90;;;;;;5040250;28;20718;-78
2023/08/04 08:35:08;;;;;;;2.60;0.93;;;18.40;99.90;;;;;;5053950;28;20235;-77
2023/08/04 08:37:36;;;;;;;1.67;0.90;;;18.60;99.90;;;;;;5054526;28;20278;-78
2023/08/04 08:40:06;;;;;;;3.73;1.10;;;18.80;99.90;;;;;;5038843;28;20243;-76
2023/08/04 08:42:34;;;;;;;2.40;1.10;;;18.90;99.90;;;;;;5033890;28;20216;-76
2023/08/04 08:45:05;;;;;;;2.57;1.20;;;19.00;99.90;;;;;;5033457;28;20703;-76
2023/08/04 08:47:36;;;;;;;2.23;1.10;;;19.10;99.90;;;;;;5043978;28;20558;-76
2023/08/04 08:50:07;;;;;;;2.23;1.10;;;19.20;99.90;;;;;;5039935;28;20212;-76
2023/08/04 08:52:39;;;;;;;2.77;1.10;;;19.30;99.90;;;;;;5033801;28;20695;-75
2023/08/04 08:55:08;;;;;;;2.30;1.10;;;19.40;99.90;;;;;;5034147;28;20193;-77
2023/08/04 08:57:37;;;;;;;1.90;1.10;;;19.40;99.90;;;;;;5039872;28;20213;-76
2023/08/04 09:00:08;;;;;;;2.13;1.10;;;19.40;99.90;;;;;;5053783;28;20230;-75
2023/08/04 09:02:38;;;;;;;2.50;1.00;;;19.60;99.90;;;;;;5050420;28;20291;-78
2023/08/04 09:05:07;;;;;;;2.63;1.13;;;19.80;99.90;;;;;;5047972;28;20220;-76
2023/08/04 09:07:35;;;;;;;2.97;1.10;;;19.80;99.90;;;;;;5054069;28;20411;-75
2023/08/04 09:10:04;;;;;;;3.93;1.23;;;20.10;99.90;;;;;;5049002;28;20303;-75
2023/08/04 09:12:33;;;;;;;2.10;1.07;;;20.50;99.90;;;;;;5039464;28;20552;-74
2023/08/04 09:15:03;;;;;;;3.03;1.03;;;20.70;99.90;;;;;;5053234;28;20270;-79
2023/08/04 09:17:34;;;;;;;2.00;0.80;;;20.90;99.90;;;;;;5060664;28;20252;-76
2023/08/04 09:20:04;;;;;;;1.73;0.97;;;21.10;99.90;;;;;;5057227;28;20211;-75
2023/08/04 09:22:35;;;;;;;1.57;1.20;;;21.40;99.90;;;;;;5051970;28;20216;-74
2023/08/04 09:25:05;;;;;;;1.83;1.07;;;21.50;99.90;;;;;;5053543;28;20208;-78
2023/08/04 09:27:34;;;;;;;1.43;0.97;;;21.60;99.90;;;;;;5052796;28;20759;-76
2023/08/04 09:30:05;;;;;;;2.67;1.00;;;21.90;99.90;;;;;;5036313;28;20209;-76
2023/08/04 09:32:41;;;;;;;1.20;1.07;;;22.50;99.90;;;;;;5033482;28;20220;-74
2023/08/04 09:35:10;;;;;;;1.97;1.00;;;22.90;99.90;;;;;;5033673;28;20655;-75
2023/08/04 09:37:40;;;;;;;0.93;0.80;;;23.00;99.90;;;;;;5035099;28;20219;-76
2023/08/04 09:40:15;;;;;;;1.93;0.90;;;23.20;99.90;;;;;;5035188;28;20219;-77
2023/08/04 09:42:44;;;;;;;2.00;0.87;;;23.40;99.90;;;;;;5033483;28;20303;-76
2023/08/04 09:45:17;;;;;;;2.23;1.10;;;23.30;99.90;;;;;;5033733;28;20209;-79
2023/08/04 09:47:51;;;;;;;2.20;1.20;;;23.00;99.90;;;;;;5032446;28;20236;-76
2023/08/04 09:50:21;;;;;;;2.33;1.07;;;22.80;99.90;;;;;;5048583;28;20353;-75
2023/08/04 09:53:01;;;;;;;1.73;1.03;;;22.50;99.90;;;;;;5052930;28;20243;-75
2023/08/04 09:55:31;;;;;;;2.63;1.27;;;22.50;99.90;;;;;;5052666;28;20753;-75
2023/08/04 09:57:59;;;;;;;3.03;1.07;;;22.30;99.90;;;;;;5044333;28;20213;-76
2023/08/04 10:00:29;;;;;;;3.63;1.27;;;22.30;99.90;;;;;;5033974;28;20225;-75
2023/08/04 10:02:59;;;;;;;2.07;1.03;;;22.10;99.90;;;;;;5032102;28;20228;-76
2023/08/04 10:05:29;;;;;;;1.30;0.90;;;22.00;99.90;;;;;;5032043;28;20216;-75
2023/08/04 10:07:58;;;;;;;3.83;1.17;;;22.10;99.90;;;;;;5033561;28;20591;-76
2023/08/04 10:10:27;;;;;;;0.90;0.90;;;21.80;99.90;;;;;;5051924;28;20663;-77
2023/08/04 10:12:55;;;;;;;1.90;1.20;;;21.60;99.90;;;;;;5050100;28;20204;-76
2023/08/04 10:15:24;;;;;;;2.60;1.30;;;21.60;99.90;;;;;;5052052;28;20666;-75
2023/08/04 10:17:52;;;;;;;2.07;1.07;;;21.70;99.90;;;;;;5051866;28;20620;-76
2023/08/04 10:20:27;;;;;;;1.47;1.00;;;21.70;99.90;;;;;;5055066;28;20228;-77
2023/08/04 10:22:55;;;;;;;1.60;1.00;;;21.80;99.90;;;;;;5031531;28;20209;-76
2023/08/04 10:25:24;;;;;;;2.10;1.13;;;21.70;99.90;;;;;;5031728;28;20216;-76
2023/08/04 10:27:52;;;;;;;1.43;0.93;;;21.70;99.90;;;;;;5031250;28;20604;-76
2023/08/04 10:30:21;;;;;;;2.17;1.30;;;21.60;99.90;;;;;;5047369;28;20204;-76
2023/08/04 10:33:10;;;;;;;3.07;1.30;;;21.80;99.90;;;;;;5049536;28;20218;-77
2023/08/04 10:36:05;;;;;;;1.57;1.00;;;21.80;99.90;;;;;;5052206;28;20290;-78
2023/08/04 10:38:45;;;;;;;3.40;1.33;;;21.80;99.90;;;;;;5045871;28;20212;-75
2023/08/04 10:41:13;;;;;;;2.73;1.20;;;21.90;99.90;;;;;;5051236;28;20200;-79
2023/08/04 10:43:42;;;;;;;2.30;1.00;;;21.80;99.90;;;;;;5051591;28;20291;-78
2023/08/04 10:46:11;;;;;;;2.00;1.17;;;21.80;99.90;;;;;;5042847;28;20656;-77
2023/08/04 10:48:41;;;;;;;2.50;1.30;;;21.70;99.90;;;;;;5031499;28;20224;-78
2023/08/04 10:51:11;;;;;;;3.43;1.20;;;21.70;99.90;;;;;;5050108;28;20677;-76
2023/08/04 10:53:40;;;;;;;2.57;1.20;;;21.40;99.90;;;;;;5051521;28;20204;-76
2023/08/04 10:56:08;;;;;;;3.57;1.17;;;21.50;99.90;;;;;;5046949;28;20298;-76
2023/08/04 10:58:36;;;;;;;2.43;1.40;;;21.50;99.90;;;;;;5032476;28;20201;-76
2023/08/04 11:01:04;;;;;;;1.70;1.20;;;21.10;99.90;;;;;;5036258;28;20205;-77
2023/08/04 11:03:34;;;;;;;2.13;1.20;;;21.10;99.90;;;;;;5045591;28;20583;-78
2023/08/04 11:06:04;;;;;;;1.47;1.10;;;20.80;99.90;;;;;;5051181;28;20209;-78
2023/08/04 11:08:35;;;;;;;3.73;1.10;;;20.70;99.90;;;;;;5035996;28;20769;-75
2023/08/04 11:11:03;;;;;;;2.77;1.23;;;20.80;99.90;;;;;;5036596;28;20266;-77
2023/08/04 11:13:32;;;;;;;2.13;1.17;;;20.90;99.90;;;;;;5035625;28;20228;-77
2023/08/04 11:16:03;;;;;;;2.83;1.40;;;20.90;99.90;;;;;;5035499;28;20215;-78
2023/08/04 11:18:32;;;;;;;1.73;1.13;;;21.00;99.90;;;;;;5035710;28;20670;-77
2023/08/04 11:21:01;;;;;;;1.73;1.00;;;21.20;99.90;;;;;;5052774;28;20242;-79
2023/08/04 11:23:31;;;;;;;1.87;1.00;;;21.40;99.90;;;;;;5055645;28;20235;-78
2023/08/04 11:26:02;;;;;;;4.40;1.23;;;21.50;99.90;;;;;;5039147;28;20667;-80
2023/08/04 11:28:32;;;;;;;1.90;1.17;;;21.40;99.90;;;;;;5056396;28;20224;-78
2023/08/04 11:31:04;;;;;;;2.43;1.30;;;21.90;99.90;;;;;;5057435;28;20211;-79
2023/08/04 11:33:33;;;;;;;2.00;1.20;;;22.20;99.90;;;;;;5035092;28;20287;-78
2023/08/04 11:36:03;;;;;;;2.33;1.30;;;22.70;99.90;;;;;;5034763;28;20213;-79
2023/08/04 11:38:31;;;;;;;1.50;1.40;;;22.90;99.90;;;;;;5052370;28;20227;-78
2023/08/04 11:41:03;;;;;;;2.53;1.20;;;22.80;97.00;;;;;;5055157;28;20219;-77
2023/08/04 11:43:31;;;;;;;1.80;1.20;;;22.70;97.60;;;;;;5046981;28;20236;-78
2023/08/04 11:46:03;;;;;;;3.07;1.17;;;22.70;99.20;;;;;;5054954;28;20214;-79
2023/08/04 11:48:35;;;;;;;1.20;1.10;;;22.50;99.70;;;;;;5054419;28;20234;-78
2023/08/04 11:51:07;;;;;;;2.90;1.10;;;22.90;98.40;;;;;;5046060;28;20678;-77
2023/08/04 11:53:37;;;;;;;1.93;1.03;;;23.40;98.40;;;;;;5036201;28;20213;-77
2023/08/04 11:56:07;;;;;;;1.53;1.00;;;23.80;94.70;;;;;;5054493;28;20216;-78
2023/08/04 11:58:45;;;;;;;1.00;0.90;;;24.20;96.70;;;;;;5053926;28;20184;-77
2023/08/04 12:01:28;;;;;;;1.43;1.00;;;24.20;95.70;;;;;;5041716;28;20213;-78
2023/08/04 12:03:56;;;;;;;1.73;1.20;;;24.50;93.50;;;;;;5034123;28;20271;-77
2023/08/04 12:06:26;;;;;;;1.40;1.07;;;24.50;94.60;;;;;;5051156;28;20222;-80
2023/08/04 12:08:56;;;;;;;1.30;1.20;;;23.70;91.10;;;;;;5054294;28;20216;-79
2023/08/04 12:11:28;;;;;;;2.80;1.07;;;23.90;87.40;;;;;;5052750;28;20219;-78
2023/08/04 12:14:07;;;;;;;2.43;1.10;;;23.90;89.50;;;;;;5038700;28;20201;-79
2023/08/04 12:16:49;;;;;;;2.43;1.30;;;24.00;89.60;;;;;;5051963;28;20212;-79
2023/08/04 12:19:17;;;;;;;2.17;1.20;;;24.30;90.70;;;;;;5054264;28;20192;-80
2023/08/04 12:21:45;;;;;;;2.97;1.20;;;23.80;89.90;;;;;;5032131;28;20224;-78
2023/08/04 12:24:14;;;;;;;2.07;1.10;;;23.90;84.60;;;;;;5013674;28;20210;-78
2023/08/04 12:26:44;;;;;;;1.77;1.10;;;23.50;84.60;;;;;;5032601;28;20209;-75
2023/08/04 12:29:12;;;;;;;1.10;0.90;;;23.30;84.40;;;;;;5034175;28;20221;-74
2023/08/04 12:31:41;;;;;;;2.27;1.20;;;22.80;89.30;;;;;;5028543;28;20690;-74
2023/08/04 12:34:10;;;;;;;1.63;1.00;;;22.30;86.90;;;;;;5031675;28;20212;-75
2023/08/04 12:36:39;;;;;;;1.40;1.10;;;22.60;90.50;;;;;;5033672;28;20267;-76
2023/08/04 12:39:08;;;;;;;2.63;1.20;;;22.80;91.90;;;;;;5033882;28;20251;-76
2023/08/04 12:41:37;;;;;;;2.87;1.07;;;23.00;91.00;;;;;;5033945;28;20216;-75
2023/08/04 12:44:07;;;;;;;1.87;1.07;;;23.10;93.90;;;;;;5014194;28;20576;-74
2023/08/04 12:46:35;;;;;;;2.23;1.27;;;22.50;92.80;;;;;;5027153;28;20208;-75
2023/08/04 12:49:04;;;;;;;3.50;1.40;;;22.40;90.80;;;;;;5028382;28;20241;-75
2023/08/04 12:51:32;;;;;;;2.00;1.10;;;22.30;93.70;;;;;;5033891;28;20236;-73
2023/08/04 12:54:00;;;;;;;1.63;1.20;;;22.40;93.60;;;;;;5033387;28;20209;-74
2023/08/04 12:56:28;;;;;;;1.57;1.20;;;21.90;93.10;;;;;;5030991;28;20714;-75
2023/08/04 12:58:56;;;;;;;1.97;1.30;;;22.10;91.50;;;;;;5026594;28;20687;-75